createdAt,value
2022-11-24T00:01:05.904Z,100.00
2022-11-24T00:03:33.036Z,100.00
2022-11-24T00:06:08.238Z,100.00
2022-11-24T00:08:35.827Z,100.00
2022-11-24T00:11:06.698Z,100.00
2022-11-24T00:13:33.639Z,100.00
2022-11-24T00:16:14.617Z,100.00
2022-11-24T00:18:42.812Z,100.00
2022-11-24T00:21:09.734Z,100.00
2022-11-24T00:23:37.080Z,100.00
2022-11-24T00:26:14.975Z,100.00
2022-11-24T00:28:43.731Z,100.00
2022-11-24T00:31:30.669Z,100.00
2022-11-24T00:34:00.698Z,100.00
2022-11-24T00:36:29.518Z,100.00
2022-11-24T00:38:58.222Z,100.00
2022-11-24T00:41:25.840Z,100.00
2022-11-24T00:43:52.726Z,100.00
2022-11-24T00:46:19.794Z,100.00
2022-11-24T00:48:46.923Z,100.00
2022-11-24T00:51:15.359Z,100.00
2022-11-24T00:53:42.126Z,100.00
2022-11-24T00:56:10.095Z,100.00
2022-11-24T00:58:36.748Z,100.00
2022-11-24T01:01:20.614Z,100.00
2022-11-24T01:03:47.815Z,100.00
2022-11-24T01:06:18.249Z,100.00
2022-11-24T01:08:45.593Z,100.00
2022-11-24T01:11:25.017Z,100.00
2022-11-24T01:13:54.536Z,100.00
2022-11-24T01:16:34.644Z,100.00
2022-11-24T01:19:01.556Z,100.00
2022-11-24T01:21:28.056Z,100.00
2022-11-24T01:23:54.541Z,100.00
2022-11-24T01:26:22.663Z,100.00
2022-11-24T01:28:54.292Z,100.00
2022-11-24T01:31:21.226Z,100.00
2022-11-24T01:33:47.856Z,100.00
2022-11-24T01:36:14.340Z,100.00
2022-11-24T01:38:40.914Z,100.00
2022-11-24T01:41:14.898Z,100.00
2022-11-24T01:43:42.733Z,100.00
2022-11-24T01:46:34.081Z,100.00
2022-11-24T01:49:21.894Z,100.00
2022-11-24T01:51:58.061Z,100.00
2022-11-24T01:54:33.551Z,100.00
2022-11-24T01:57:09.182Z,100.00
2022-11-24T01:59:36.583Z,100.00
2022-11-24T02:02:03.839Z,100.00
2022-11-24T02:04:33.971Z,100.00
2022-11-24T02:07:03.402Z,100.00
2022-11-24T02:09:43.348Z,100.00
2022-11-24T02:12:10.342Z,100.00
2022-11-24T02:14:39.677Z,100.00
2022-11-24T02:17:06.286Z,100.00
2022-11-24T02:19:41.948Z,100.00
2022-11-24T02:22:24.478Z,100.00
2022-11-24T02:24:59.845Z,100.00
2022-11-24T02:27:26.327Z,100.00
2022-11-24T02:29:52.927Z,100.00
2022-11-24T02:32:20.393Z,100.00
2022-11-24T02:34:47.070Z,100.00
2022-11-24T02:37:13.524Z,100.00
2022-11-24T02:39:40.003Z,100.00
2022-11-24T02:42:10.381Z,100.00
2022-11-24T02:44:45.989Z,100.00
2022-11-24T02:47:13.148Z,100.00
2022-11-24T02:49:40.427Z,100.00
2022-11-24T02:52:08.123Z,100.00
2022-11-24T02:54:34.860Z,100.00
2022-11-24T02:57:01.707Z,100.00
2022-11-24T02:59:28.230Z,100.00
2022-11-24T03:01:54.826Z,100.00
2022-11-24T03:04:21.360Z,100.00
2022-11-24T03:06:47.912Z,100.00
2022-11-24T03:09:14.555Z,100.00
2022-11-24T03:11:41.050Z,100.00
2022-11-24T03:14:07.591Z,100.00
2022-11-24T03:16:34.849Z,100.00
2022-11-24T03:19:01.792Z,100.00
2022-11-24T03:21:28.452Z,100.00
2022-11-24T03:23:54.939Z,100.00
2022-11-24T03:26:23.315Z,100.00
2022-11-24T03:28:50.192Z,100.00
2022-11-24T03:31:16.745Z,100.00
2022-11-24T03:33:43.258Z,100.00
2022-11-24T03:36:09.971Z,100.00
2022-11-24T03:38:36.453Z,100.00
2022-11-24T03:41:02.961Z,100.00
2022-11-24T03:43:29.469Z,100.00
2022-11-24T03:45:56.624Z,100.00
2022-11-24T03:48:23.241Z,100.00
2022-11-24T03:50:57.579Z,100.00
2022-11-24T03:53:25.261Z,100.00
2022-11-24T03:55:52.503Z,100.00
2022-11-24T03:58:19.585Z,100.00
2022-11-24T04:00:51.854Z,100.00
2022-11-24T04:03:19.150Z,100.00
2022-11-24T04:05:46.269Z,100.00
2022-11-24T04:08:13.288Z,100.00
2022-11-24T04:10:40.206Z,100.00
2022-11-24T04:13:18.491Z,100.00
2022-11-24T04:15:45.192Z,100.00
2022-11-24T04:18:12.898Z,100.00
2022-11-24T04:20:40.516Z,100.00
2022-11-24T04:23:07.849Z,100.00
2022-11-24T04:25:34.556Z,100.00
2022-11-24T04:28:01.123Z,100.00
2022-11-24T04:30:29.315Z,100.00
2022-11-24T04:32:56.959Z,100.00
2022-11-24T04:35:23.846Z,100.00
2022-11-24T04:37:50.503Z,100.00
2022-11-24T04:40:17.633Z,100.00
2022-11-24T04:42:44.248Z,100.00
2022-11-24T04:45:11.042Z,100.00
2022-11-24T04:47:38.369Z,100.00
2022-11-24T04:50:07.812Z,100.00
2022-11-24T04:52:34.426Z,100.00
2022-11-24T04:55:01.286Z,100.00
2022-11-24T04:57:28.055Z,100.00
2022-11-24T04:59:54.968Z,100.00
2022-11-24T05:02:21.608Z,100.00
2022-11-24T05:04:48.227Z,100.00
2022-11-24T05:07:18.870Z,100.00
2022-11-24T05:10:05.033Z,100.00
2022-11-24T05:12:31.518Z,100.00
2022-11-24T05:15:02.677Z,100.00
2022-11-24T05:17:37.070Z,100.00
2022-11-24T05:20:05.610Z,100.00
2022-11-24T05:22:31.952Z,100.00
2022-11-24T05:24:58.658Z,100.00
2022-11-24T05:27:25.172Z,100.00
2022-11-24T05:29:51.555Z,100.00
2022-11-24T05:32:17.951Z,100.00
2022-11-24T05:34:44.425Z,100.00
2022-11-24T05:37:10.775Z,100.00
2022-11-24T05:39:38.018Z,100.00
2022-11-24T05:42:24.990Z,100.00
2022-11-24T05:44:52.151Z,100.00
2022-11-24T05:47:19.058Z,100.00
2022-11-24T05:49:45.395Z,100.00
2022-11-24T05:52:12.272Z,100.00
2022-11-24T05:54:38.683Z,100.00
2022-11-24T05:57:05.330Z,100.00
2022-11-24T05:59:31.770Z,100.00
2022-11-24T06:01:58.217Z,100.00
2022-11-24T06:04:24.576Z,100.00
2022-11-24T06:06:50.926Z,99.98
2022-11-24T06:09:17.747Z,99.90
2022-11-24T06:11:44.180Z,100.00
2022-11-24T06:14:11.479Z,100.00
2022-11-24T06:16:38.285Z,100.00
2022-11-24T06:19:04.802Z,100.00
2022-11-24T06:21:31.786Z,100.00
2022-11-24T06:23:58.424Z,100.00
2022-11-24T06:26:24.790Z,100.00
2022-11-24T06:28:51.128Z,100.00
2022-11-24T06:31:17.573Z,100.00
2022-11-24T06:33:44.244Z,100.00
2022-11-24T06:36:13.151Z,100.00
2022-11-24T06:38:39.692Z,100.00
2022-11-24T06:41:09.915Z,100.00
2022-11-24T06:43:36.691Z,100.00
2022-11-24T06:46:04.068Z,100.00
2022-11-24T06:48:31.197Z,100.00
2022-11-24T06:51:02.381Z,100.00
2022-11-24T06:53:32.895Z,100.00
2022-11-24T06:56:01.013Z,100.00
2022-11-24T06:58:27.791Z,100.00
2022-11-24T07:00:54.414Z,100.00
2022-11-24T07:03:21.202Z,100.00
2022-11-24T07:05:47.711Z,100.00
2022-11-24T07:08:17.944Z,100.00
2022-11-24T07:10:45.409Z,100.00
2022-11-24T07:13:11.786Z,100.00
2022-11-24T07:15:38.111Z,100.00
2022-11-24T07:18:04.788Z,100.00
2022-11-24T07:20:31.554Z,100.00
2022-11-24T07:22:58.464Z,100.00
2022-11-24T07:25:25.698Z,100.00
2022-11-24T07:27:56.882Z,100.00
2022-11-24T07:30:24.010Z,100.00
2022-11-24T07:32:50.378Z,100.00
2022-11-24T07:35:17.739Z,100.00
2022-11-24T07:37:44.215Z,100.00
2022-11-24T07:40:11.126Z,100.00
2022-11-24T07:42:37.463Z,100.00
2022-11-24T07:45:04.089Z,100.00
2022-11-24T07:47:30.454Z,100.00
2022-11-24T07:49:56.792Z,100.00
2022-11-24T07:52:26.514Z,100.00
2022-11-24T07:54:52.939Z,100.00
2022-11-24T07:57:19.318Z,100.00
2022-11-24T07:59:45.685Z,100.00
2022-11-24T08:02:13.171Z,100.00
2022-11-24T08:04:39.584Z,100.00
2022-11-24T08:07:05.936Z,100.00
2022-11-24T08:09:32.271Z,100.00
2022-11-24T08:11:58.612Z,100.00
2022-11-24T08:14:24.963Z,100.00
2022-11-24T08:16:51.389Z,100.00
2022-11-24T08:19:17.825Z,100.00
2022-11-24T08:21:44.220Z,100.00
2022-11-24T08:24:10.788Z,100.00
2022-11-24T08:26:37.135Z,100.00
2022-11-24T08:29:03.488Z,100.00
2022-11-24T08:31:33.906Z,100.00
2022-11-24T08:34:01.764Z,100.00
2022-11-24T08:36:28.210Z,100.00
2022-11-24T08:38:59.410Z,100.00
2022-11-24T08:41:27.007Z,100.00
2022-11-24T08:43:54.135Z,100.00
2022-11-24T08:46:21.008Z,100.00
2022-11-24T08:48:53.623Z,100.00
2022-11-24T08:51:25.929Z,100.00
2022-11-24T08:54:00.902Z,100.00
2022-11-24T08:56:29.228Z,100.00
2022-11-24T08:58:56.487Z,100.00
2022-11-24T09:01:23.729Z,100.00
2022-11-24T09:03:51.517Z,100.00
2022-11-24T09:06:20.037Z,100.00
2022-11-24T09:08:46.428Z,100.00
2022-11-24T09:11:15.188Z,100.00
2022-11-24T09:13:42.037Z,100.00
2022-11-24T09:16:12.132Z,100.00
2022-11-24T09:18:38.988Z,100.00
2022-11-24T09:21:09.715Z,100.00
2022-11-24T09:23:38.461Z,100.00
2022-11-24T09:26:13.886Z,100.00
2022-11-24T09:28:41.487Z,100.00
2022-11-24T09:31:11.235Z,100.00
2022-11-24T09:33:38.789Z,100.00
2022-11-24T09:36:06.339Z,100.00
2022-11-24T09:38:33.169Z,100.00
2022-11-24T09:41:32.517Z,100.00
2022-11-24T09:44:27.486Z,100.00
2022-11-24T09:47:02.775Z,100.00
2022-11-24T09:49:51.631Z,100.00
2022-11-24T09:52:37.617Z,100.00
2022-11-24T09:55:12.860Z,100.00
2022-11-24T09:57:43.829Z,100.00
2022-11-24T10:00:13.151Z,100.00
2022-11-24T10:02:39.573Z,100.00
2022-11-24T10:05:06.797Z,100.00
2022-11-24T10:07:42.401Z,100.00
2022-11-24T10:10:24.261Z,100.00
2022-11-24T10:12:54.170Z,100.00
2022-11-24T10:15:58.433Z,100.00
2022-11-24T10:18:33.721Z,100.00
2022-11-24T10:21:31.799Z,100.00
2022-11-24T10:24:24.385Z,100.00
2022-11-24T10:26:58.140Z,100.00
2022-11-24T10:29:37.644Z,100.00
2022-11-24T10:32:07.577Z,100.00
2022-11-24T10:34:37.588Z,100.00
2022-11-24T10:37:27.524Z,100.00
2022-11-24T10:40:03.916Z,100.00
2022-11-24T10:42:36.712Z,100.00
2022-11-24T10:45:10.904Z,100.00
2022-11-24T10:47:38.280Z,100.00
2022-11-24T10:50:09.780Z,100.00
2022-11-24T10:52:43.067Z,100.00
2022-11-24T10:55:09.756Z,99.76
2022-11-24T10:57:38.570Z,99.10
2022-11-24T11:00:24.860Z,97.88
2022-11-24T11:03:11.634Z,97.54
2022-11-24T11:06:02.412Z,97.46
2022-11-24T11:08:31.260Z,96.96
2022-11-24T11:11:21.605Z,96.53
2022-11-24T11:14:01.523Z,95.99
2022-11-24T11:16:53.711Z,95.57
2022-11-24T11:19:55.455Z,95.58
2022-11-24T11:22:32.033Z,94.83
2022-11-24T11:25:03.717Z,94.51
2022-11-24T11:27:30.144Z,94.29
2022-11-24T11:35:50.257Z,93.54
2022-11-24T11:38:16.650Z,93.86
2022-11-24T11:40:43.778Z,93.56
2022-11-24T11:43:23.258Z,93.69
2022-11-24T11:46:00.854Z,93.14
2022-11-24T11:48:40.630Z,92.59
2022-11-24T11:51:31.078Z,91.99
2022-11-24T11:54:20.749Z,91.98
2022-11-24T11:57:04.688Z,91.99
2022-11-24T11:59:56.263Z,91.85
2022-11-24T12:02:38.216Z,91.88
2022-11-24T12:05:19.572Z,91.38
2022-11-24T12:08:14.551Z,90.64
2022-11-24T12:10:54.238Z,90.73
2022-11-24T12:13:44.109Z,90.90
2022-11-24T12:16:25.077Z,90.96
2022-11-24T12:19:38.143Z,90.80
2022-11-24T12:22:22.335Z,90.04
2022-11-24T12:24:57.503Z,90.51
2022-11-24T12:27:41.359Z,90.10
2022-11-24T12:30:19.409Z,90.39
2022-11-24T12:33:17.811Z,90.56
2022-11-24T12:35:45.638Z,89.45
2022-11-24T12:38:33.796Z,89.35
2022-11-24T12:41:41.842Z,89.45
2022-11-24T12:44:44.459Z,89.02
2022-11-24T12:47:24.825Z,89.21
2022-11-24T12:50:06.582Z,89.36
2022-11-24T12:52:38.165Z,89.26
2022-11-24T12:55:05.559Z,88.46
2022-11-24T12:57:59.028Z,88.51
2022-11-24T13:01:10.407Z,88.44
2022-11-24T13:04:04.552Z,88.28
2022-11-24T13:06:37.594Z,88.50
2022-11-24T13:09:12.330Z,88.60
2022-11-24T13:11:52.953Z,88.67
2022-11-24T13:14:28.228Z,89.33
2022-11-24T13:17:29.745Z,88.79
2022-11-24T13:19:44.631Z,88.51
2022-11-24T13:22:16.888Z,88.86
2022-11-24T13:24:44.908Z,89.26
2022-11-24T13:27:16.756Z,89.15
2022-11-24T13:29:45.081Z,89.34
2022-11-24T13:32:14.512Z,89.27
2022-11-24T13:34:40.815Z,88.98
2022-11-24T13:37:31.607Z,89.48
2022-11-24T13:40:11.263Z,89.28
2022-11-24T13:42:56.280Z,89.12
2022-11-24T13:45:49.483Z,88.86
2022-11-24T13:48:18.804Z,88.84
2022-11-24T13:50:51.725Z,89.38
2022-11-24T13:53:25.606Z,88.99
2022-11-24T13:55:59.223Z,88.38
2022-11-24T13:58:50.390Z,88.63
2022-11-24T14:01:32.919Z,88.72
2022-11-24T14:04:29.778Z,89.14
2022-11-24T14:07:07.442Z,89.54
2022-11-24T14:09:47.529Z,89.70
2022-11-24T14:12:20.318Z,89.74
2022-11-24T14:14:49.349Z,89.89
2022-11-24T14:17:23.416Z,89.73
2022-11-24T14:19:52.707Z,89.57
2022-11-24T14:22:24.258Z,89.96
2022-11-24T14:24:57.032Z,89.94
2022-11-24T14:27:31.485Z,90.06
2022-11-24T14:30:17.972Z,90.18
2022-11-24T14:32:54.674Z,90.32
2022-11-24T14:35:33.075Z,90.63
2022-11-24T14:38:04.387Z,90.99
2022-11-24T14:40:50.281Z,91.32
2022-11-24T14:43:25.592Z,91.38
2022-11-24T14:45:58.508Z,91.82
2022-11-24T14:48:28.185Z,91.83
2022-11-24T14:51:06.096Z,92.30
2022-11-24T14:53:34.358Z,92.48
2022-11-24T14:56:10.849Z,92.67
2022-11-24T14:58:41.958Z,92.91
2022-11-24T15:01:19.803Z,93.17
2022-11-24T15:03:46.996Z,93.34
2022-11-24T15:06:20.987Z,93.56
2022-11-24T15:08:49.274Z,93.51
2022-11-24T15:11:15.973Z,93.73
2022-11-24T15:13:53.331Z,94.38
2022-11-24T15:16:21.649Z,94.27
2022-11-24T15:18:55.328Z,94.47
2022-11-24T15:21:33.094Z,94.60
2022-11-24T15:24:17.044Z,94.68
2022-11-24T15:26:44.630Z,95.10
2022-11-24T15:29:12.329Z,95.34
2022-11-24T15:31:45.294Z,95.38
2022-11-24T15:34:15.662Z,95.69
2022-11-24T15:36:42.022Z,96.29
2022-11-24T15:39:08.355Z,96.43
2022-11-24T15:41:34.849Z,96.16
2022-11-24T15:44:01.288Z,96.42
2022-11-24T15:46:28.861Z,96.58
2022-11-24T15:48:55.954Z,96.85
2022-11-24T15:51:26.067Z,96.90
2022-11-24T15:54:00.252Z,97.19
2022-11-24T15:56:32.832Z,97.53
2022-11-24T15:59:00.263Z,97.50
2022-11-24T16:01:31.291Z,97.98
2022-11-24T16:03:57.809Z,97.86
2022-11-24T16:06:25.474Z,98.58
2022-11-24T16:08:53.472Z,98.44
2022-11-24T16:11:20.492Z,98.69
2022-11-24T16:13:52.032Z,98.84
2022-11-24T16:16:20.509Z,99.13
2022-11-24T16:18:46.918Z,98.85
2022-11-24T16:21:13.275Z,99.40
2022-11-24T16:23:40.475Z,99.50
2022-11-24T16:26:07.348Z,99.69
2022-11-24T16:28:33.875Z,100.00
2022-11-24T16:31:00.232Z,100.00
2022-11-24T16:33:29.158Z,100.00
2022-11-24T16:35:55.499Z,100.00
2022-11-24T16:38:21.899Z,100.00
2022-11-24T16:40:52.607Z,100.00
2022-11-24T16:43:19.387Z,100.00
2022-11-24T16:45:45.956Z,100.00
2022-11-24T16:48:12.573Z,100.00
2022-11-24T16:50:39.076Z,100.00
2022-11-24T16:53:05.396Z,100.00
2022-11-24T16:55:31.714Z,100.00
2022-11-24T16:57:58.025Z,100.00
2022-11-24T17:00:24.461Z,100.00
2022-11-24T17:02:50.844Z,100.00
2022-11-24T17:05:17.240Z,100.00
2022-11-24T17:07:43.605Z,100.00
2022-11-24T17:10:10.389Z,100.00
2022-11-24T17:12:37.579Z,100.00
2022-11-24T17:18:22.304Z,100.00
2022-11-24T17:20:38.023Z,100.00
2022-11-24T17:23:04.350Z,100.00
2022-11-24T17:25:32.153Z,100.00
2022-11-24T17:27:58.474Z,100.00
2022-11-24T17:30:24.825Z,100.00
2022-11-24T17:32:56.411Z,100.00
2022-11-24T17:35:23.534Z,100.00
2022-11-24T17:37:49.925Z,100.00
2022-11-24T17:40:34.259Z,100.00
2022-11-24T17:43:04.273Z,100.00
2022-11-24T17:45:32.879Z,100.00
2022-11-24T17:48:00.774Z,100.00
2022-11-24T17:50:30.060Z,100.00
2022-11-24T17:53:13.512Z,100.00
2022-11-24T17:55:40.809Z,100.00
2022-11-24T17:58:07.156Z,100.00
2022-11-24T18:00:33.595Z,100.00
2022-11-24T18:03:00.877Z,100.00
2022-11-24T18:05:27.537Z,100.00
2022-11-24T18:07:54.990Z,100.00
2022-11-24T18:10:21.454Z,100.00
2022-11-24T18:12:47.839Z,100.00
2022-11-24T18:15:14.299Z,100.00
2022-11-24T18:17:40.661Z,100.00
2022-11-24T18:20:07.618Z,100.00
2022-11-24T18:23:04.178Z,100.00
2022-11-24T18:25:20.334Z,100.00
2022-11-24T18:27:46.851Z,100.00
2022-11-24T18:30:13.493Z,100.00
2022-11-24T18:32:39.913Z,100.00
2022-11-24T18:35:06.862Z,100.00
2022-11-24T18:37:33.946Z,100.00
2022-11-24T18:40:00.292Z,100.00
2022-11-24T18:42:26.798Z,100.00
2022-11-24T18:44:54.330Z,100.00
2022-11-24T18:47:20.805Z,100.00
2022-11-24T18:49:47.218Z,100.00
2022-11-24T18:52:13.666Z,100.00
2022-11-24T18:54:40.064Z,100.00
2022-11-24T18:57:06.398Z,100.00
2022-11-24T18:59:32.742Z,100.00
2022-11-24T19:01:59.114Z,100.00
2022-11-24T19:04:26.156Z,100.00
2022-11-24T19:06:52.516Z,100.00
2022-11-24T19:09:20.475Z,100.00
2022-11-24T19:11:47.412Z,100.00
2022-11-24T19:14:16.659Z,100.00
2022-11-24T19:16:43.465Z,100.00
2022-11-24T19:19:12.086Z,100.00
2022-11-24T19:21:40.028Z,100.00
2022-11-24T19:24:09.947Z,100.00
2022-11-24T19:26:37.170Z,100.00
2022-11-24T19:29:04.981Z,100.00
2022-11-24T19:31:31.688Z,100.00
2022-11-24T19:33:59.714Z,100.00
2022-11-24T19:36:26.501Z,100.00
2022-11-24T19:38:54.862Z,100.00
2022-11-24T19:41:24.785Z,100.00
2022-11-24T19:43:53.435Z,100.00
2022-11-24T19:46:21.208Z,100.00
2022-11-24T19:48:50.359Z,100.00
2022-11-24T19:51:22.622Z,99.87
2022-11-24T19:53:49.228Z,99.55
2022-11-24T19:56:27.007Z,99.72
2022-11-24T19:58:54.464Z,99.56
2022-11-24T20:01:27.599Z,99.49
2022-11-24T20:03:58.808Z,99.29
2022-11-24T20:06:27.834Z,99.36
2022-11-24T20:08:54.753Z,99.24
2022-11-24T20:11:21.548Z,99.05
2022-11-24T20:13:49.691Z,99.04
2022-11-24T20:16:18.805Z,99.08
2022-11-24T20:18:47.159Z,98.95
2022-11-24T20:21:19.440Z,98.97
2022-11-24T20:23:51.106Z,98.77
2022-11-24T20:26:19.720Z,98.77
2022-11-24T20:28:47.260Z,98.60
2022-11-24T20:31:19.739Z,98.45
2022-11-24T20:33:46.656Z,98.38
2022-11-24T20:36:18.491Z,98.51
2022-11-24T20:38:46.125Z,98.62
2022-11-24T20:41:17.968Z,98.40
2022-11-24T20:43:44.933Z,98.59
2022-11-24T20:46:16.826Z,98.76
2022-11-24T20:48:44.064Z,98.50
2022-11-24T20:51:17.088Z,98.21
2022-11-24T20:53:43.621Z,98.13
2022-11-24T20:56:13.232Z,98.31
2022-11-24T20:58:39.836Z,97.96
2022-11-24T21:01:12.637Z,98.05
2022-11-24T21:03:43.363Z,97.95
2022-11-24T21:06:11.893Z,97.54
2022-11-24T21:08:40.329Z,97.45
2022-11-24T21:11:08.443Z,97.50
2022-11-24T21:13:36.483Z,97.19
2022-11-24T21:16:21.241Z,97.15
2022-11-24T21:18:50.846Z,96.86
2022-11-24T21:21:18.435Z,96.84
2022-11-24T21:23:47.991Z,96.88
2022-11-24T21:26:17.182Z,96.75
2022-11-24T21:28:46.440Z,96.72
2022-11-24T21:31:17.949Z,96.75
2022-11-24T21:33:46.978Z,96.53
2022-11-24T21:36:15.907Z,96.44
2022-11-24T21:38:42.753Z,96.65
2022-11-24T21:41:10.780Z,96.64
2022-11-24T21:43:37.656Z,96.71
2022-11-24T21:46:09.422Z,96.46
2022-11-24T21:48:36.933Z,96.53
2022-11-24T21:51:06.113Z,96.43
2022-11-24T21:53:35.543Z,96.42
2022-11-24T21:56:05.460Z,96.45
2022-11-24T21:58:33.276Z,96.48
2022-11-24T22:01:10.949Z,96.47
2022-11-24T22:03:37.907Z,96.48
2022-11-24T22:06:04.922Z,96.49
2022-11-24T22:08:31.497Z,96.71
2022-11-24T22:11:21.434Z,96.60
2022-11-24T22:13:48.748Z,96.83
2022-11-24T22:16:20.623Z,96.58
2022-11-24T22:18:47.421Z,96.36
2022-11-24T22:21:29.740Z,96.60
2022-11-24T22:23:56.114Z,96.59
2022-11-24T22:26:23.705Z,96.42
2022-11-24T22:28:50.770Z,96.46
2022-11-24T22:31:23.531Z,96.37
2022-11-24T22:33:51.165Z,96.35
2022-11-24T22:36:20.770Z,96.70
2022-11-24T22:38:48.090Z,96.66
2022-11-24T22:41:16.762Z,96.99
2022-11-24T22:43:44.707Z,96.85
2022-11-24T22:46:16.864Z,97.01
2022-11-24T22:48:45.091Z,96.97
2022-11-24T22:51:25.913Z,96.77
2022-11-24T22:53:55.061Z,96.96
2022-11-24T22:56:22.351Z,96.94
2022-11-24T22:58:49.173Z,96.79
2022-11-24T23:01:18.910Z,96.98
2022-11-24T23:03:45.626Z,96.91
2022-11-24T23:06:17.577Z,96.95
2022-11-24T23:08:44.256Z,97.02
2022-11-24T23:11:17.641Z,97.15
2022-11-24T23:13:44.370Z,97.08
2022-11-24T23:16:16.998Z,97.14
2022-11-24T23:18:48.749Z,97.04
2022-11-24T23:21:23.715Z,97.35
2022-11-24T23:23:51.178Z,97.17
2022-11-24T23:26:20.505Z,97.29
2022-11-24T23:28:47.539Z,97.60
2022-11-24T23:31:16.948Z,97.79
2022-11-24T23:33:43.959Z,97.84
2022-11-24T23:36:13.034Z,98.03
2022-11-24T23:38:40.170Z,98.21
2022-11-24T23:41:10.819Z,98.65
2022-11-24T23:43:39.147Z,98.85
2022-11-24T23:46:08.448Z,98.99
2022-11-24T23:48:36.408Z,99.36
2022-11-24T23:51:07.610Z,99.50
2022-11-24T23:53:35.405Z,100.00
2022-11-24T23:56:02.546Z,100.00
2022-11-24T23:58:29.639Z,100.00
